Time;durP1;ratioP1;P1;durP2;ratioP2;P2;SDS_P1;SDS_P2;PMS_P1;PMS_P2;Temp;Humidity;BMP_temperature;BMP_pressure;BME280_temperature;BME280_humidity;BME280_pressure;Samples;Min_cycle;Max_cycle;Signal;HPM_P1;HPM_P2
2022/07/01 00:00:34;;;;;;;12.35;11.23;;;;;;;22.67;57.67;100206.34;5064833;28;20039;-26
2022/07/01 00:02:59;;;;;;;11.88;10.60;;;;;;;22.64;58.25;100208.41;5064161;28;20028;-27
2022/07/01 00:05:25;;;;;;;12.23;11.00;;;;;;;22.60;57.70;100207.72;5066171;28;20447;-27
2022/07/01 00:07:50;;;;;;;12.48;11.18;;;;;;;22.55;58.52;100207.16;5067460;28;20027;-27
2022/07/01 00:10:16;;;;;;;13.00;11.80;;;;;;;22.52;58.02;100202.84;5065169;28;20024;-27
2022/07/01 00:12:41;;;;;;;11.80;10.75;;;;;;;22.50;58.57;100203.91;5068008;28;20029;-27
2022/07/01 00:15:07;;;;;;;13.15;11.85;;;;;;;22.45;58.63;100208.72;5067976;28;20145;-27
2022/07/01 00:17:33;;;;;;;12.63;11.35;;;;;;;22.41;58.40;100203.56;5067570;28;20025;-27
2022/07/01 00:19:58;;;;;;;13.10;11.40;;;;;;;22.39;58.28;100205.50;5071042;28;20450;-27
2022/07/01 00:22:23;;;;;;;12.95;10.88;;;;;;;22.34;58.42;100214.81;5070502;28;20028;-27
2022/07/01 00:24:49;;;;;;;12.23;10.95;;;;;;;22.28;58.53;100203.50;5070619;28;20096;-26
2022/07/01 00:27:15;;;;;;;12.23;11.02;;;;;;;22.27;58.34;100208.97;5068587;28;20040;-26
2022/07/01 00:29:41;;;;;;;12.45;11.18;;;;;;;22.20;58.47;100191.56;5069640;28;20024;-26
2022/07/01 00:32:06;;;;;;;11.75;10.60;;;;;;;22.17;58.40;100196.16;5069152;28;20060;-26
2022/07/01 00:34:32;;;;;;;13.70;12.30;;;;;;;22.14;58.31;100195.53;5068179;28;20123;-26
2022/07/01 00:36:57;;;;;;;13.80;12.35;;;;;;;22.10;58.71;100194.84;5068312;28;20061;-27
2022/07/01 00:39:23;;;;;;;12.35;11.25;;;;;;;22.08;58.56;100193.22;5067691;28;21384;-26
2022/07/01 00:41:48;;;;;;;12.77;11.30;;;;;;;22.07;58.64;100200.41;5052711;28;20066;-26
2022/07/01 00:44:20;;;;;;;13.30;11.98;;;;;;;22.07;59.23;100194.19;5066364;28;20013;-26
2022/07/01 00:46:46;;;;;;;13.40;12.15;;;;;;;22.03;58.97;100194.41;5070032;28;20515;-27
2022/07/01 00:49:12;;;;;;;15.50;13.85;;;;;;;22.04;59.20;100187.22;5067504;28;20472;-27
2022/07/01 00:51:38;;;;;;;13.38;12.10;;;;;;;21.98;58.76;100188.47;5069783;28;20047;-26
2022/07/01 00:54:03;;;;;;;13.25;12.00;;;;;;;21.96;59.13;100184.13;5071366;28;20029;-26
2022/07/01 00:56:29;;;;;;;14.93;13.43;;;;;;;21.97;59.40;100189.41;5066237;28;20043;-27
2022/07/01 00:58:55;;;;;;;14.98;13.57;;;;;;;21.98;59.33;100191.16;5058025;28;20424;-26
2022/07/01 01:01:22;;;;;;;13.38;11.90;;;;;;;21.98;59.17;100188.47;5065432;28;20037;-26
2022/07/01 01:03:47;;;;;;;15.18;12.80;;;;;;;21.93;59.86;100185.22;5062982;28;20023;-27
2022/07/01 01:06:13;;;;;;;13.98;12.68;;;;;;;21.91;59.34;100181.78;5064496;28;20021;-27
2022/07/01 01:08:38;;;;;;;14.18;12.75;;;;;;;21.89;59.08;100181.88;5065830;28;20544;-26
2022/07/01 01:11:04;;;;;;;13.85;12.00;;;;;;;21.85;59.16;100180.34;5062760;28;20039;-27
2022/07/01 01:13:29;;;;;;;14.10;12.80;;;;;;;21.86;59.30;100178.50;5068850;28;20480;-26
2022/07/01 01:15:55;;;;;;;14.13;12.73;;;;;;;21.85;59.18;100191.09;5065539;28;20032;-26
2022/07/01 01:18:20;;;;;;;15.20;13.80;;;;;;;21.86;59.58;100192.81;5066878;28;20051;-26
2022/07/01 01:20:45;;;;;;;15.40;13.90;;;;;;;21.84;59.19;100192.03;5067434;28;20025;-26
2022/07/01 01:23:11;;;;;;;14.73;13.32;;;;;;;21.80;59.10;100190.50;5062633;28;20038;-26
2022/07/01 01:25:36;;;;;;;14.73;13.23;;;;;;;21.79;59.49;100184.28;5066100;28;20028;-24
2022/07/01 01:28:03;;;;;;;15.80;14.30;;;;;;;21.75;59.36;100181.91;5068628;28;20037;-27
2022/07/01 01:30:29;;;;;;;15.02;13.52;;;;;;;21.74;59.62;100191.75;5066775;28;20071;-26
2022/07/01 01:32:54;;;;;;;14.38;12.98;;;;;;;21.72;59.21;100185.63;5067422;28;20031;-27
2022/07/01 01:35:20;;;;;;;13.90;12.70;;;;;;;21.74;60.02;100180.19;5069777;28;20028;-26
2022/07/01 01:37:46;;;;;;;14.20;12.90;;;;;;;21.71;59.56;100180.34;5068378;28;20026;-27
2022/07/01 01:40:13;;;;;;;14.32;12.93;;;;;;;21.67;59.49;100185.91;5067958;28;20099;-26
2022/07/01 01:42:39;;;;;;;13.82;12.52;;;;;;;21.64;59.45;100180.72;5055756;28;20660;-26
2022/07/01 01:45:05;;;;;;;14.63;13.20;;;;;;;21.61;60.30;100180.91;5067832;28;20024;-26
2022/07/01 01:47:31;;;;;;;15.32;13.60;;;;;;;21.57;59.84;100184.75;5068307;28;20062;-27
2022/07/01 01:49:58;;;;;;;14.27;12.90;;;;;;;21.56;59.61;100183.03;5065994;28;20476;-26
2022/07/01 01:52:23;;;;;;;14.23;12.90;;;;;;;21.54;59.65;100196.53;5067350;28;20021;-24
2022/07/01 01:54:49;;;;;;;14.40;12.98;;;;;;;21.50;59.88;100191.47;5064907;28;20519;-26
2022/07/01 01:57:14;;;;;;;14.63;12.80;;;;;;;21.51;60.03;100186.00;5053054;28;20047;-24
2022/07/01 01:59:40;;;;;;;13.90;12.60;;;;;;;21.45;59.86;100174.81;5056821;28;21404;-26
2022/07/01 02:02:05;;;;;;;14.48;13.07;;;;;;;21.46;60.39;100181.88;5068608;28;20028;-27
2022/07/01 02:04:31;;;;;;;15.27;13.68;;;;;;;21.46;60.27;100192.63;5067641;28;20044;-26
2022/07/01 02:06:57;;;;;;;16.20;13.35;;;;;;;21.43;60.32;100185.63;5067491;28;20079;-27
2022/07/01 02:09:22;;;;;;;14.15;12.75;;;;;;;21.35;60.12;100186.13;5067118;28;20496;-26
2022/07/01 02:11:48;;;;;;;14.98;13.48;;;;;;;21.33;60.22;100190.72;5067528;28;20086;-27
2022/07/01 02:14:13;;;;;;;15.02;13.10;;;;;;;21.36;60.42;100192.34;5064229;28;20034;-27
2022/07/01 02:16:38;;;;;;;14.38;13.07;;;;;;;21.33;60.03;100193.41;5068459;28;20400;-26
2022/07/01 02:19:04;;;;;;;14.38;13.05;;;;;;;21.30;60.24;100207.00;5067195;28;20113;-26
2022/07/01 02:21:29;;;;;;;13.55;12.27;;;;;;;21.29;60.25;100221.34;5065687;28;20063;-26
2022/07/01 02:23:54;;;;;;;16.17;14.68;;;;;;;21.27;60.24;100220.56;5063896;28;20059;-26
2022/07/01 02:26:20;;;;;;;14.73;13.43;;;;;;;21.25;60.31;100226.06;5065858;28;20452;-26
2022/07/01 02:28:46;;;;;;;14.38;12.98;;;;;;;21.25;60.26;100230.56;5065001;28;20044;-26
2022/07/01 02:31:11;;;;;;;14.80;13.20;;;;;;;21.24;60.68;100232.38;5064979;28;20036;-26
2022/07/01 02:33:36;;;;;;;15.73;14.20;;;;;;;21.23;61.01;100245.84;5065658;28;20033;-26
2022/07/01 02:36:02;;;;;;;15.38;13.88;;;;;;;21.26;61.39;100267.13;5065972;28;20056;-26
2022/07/01 02:38:27;;;;;;;17.65;14.05;;;;;;;21.24;61.54;100269.06;5068687;28;20040;-26
2022/07/01 02:40:53;;;;;;;18.80;15.48;;;;;;;21.26;62.06;100280.53;5068259;28;20495;-26
2022/07/01 02:43:18;;;;;;;16.67;14.98;;;;;;;21.24;62.77;100294.03;5070646;28;20048;-26
2022/07/01 02:45:43;;;;;;;17.67;15.38;;;;;;;21.24;62.64;100301.25;5068811;28;20021;-26
2022/07/01 02:48:09;;;;;;;16.00;14.50;;;;;;;21.21;61.69;100302.25;5065375;28;20028;-27
2022/07/01 02:50:34;;;;;;;16.05;14.25;;;;;;;21.23;61.25;100304.84;5065830;28;20035;-25
2022/07/01 02:53:00;;;;;;;15.55;13.93;;;;;;;21.19;61.18;100306.00;5063354;28;20060;-26
2022/07/01 02:55:25;;;;;;;15.50;13.95;;;;;;;21.19;61.00;100314.03;5062672;28;20031;-26
2022/07/01 02:57:51;;;;;;;16.85;15.23;;;;;;;21.17;61.49;100305.25;5064834;28;20028;-26
2022/07/01 03:00:18;;;;;;;16.67;15.07;;;;;;;21.19;61.79;100311.34;5065942;28;20441;-26
2022/07/01 03:02:43;;;;;;;16.30;14.65;;;;;;;21.14;62.02;100312.50;5066843;28;20102;-26
2022/07/01 03:05:13;;;;;;;15.88;14.38;;;;;;;21.15;62.06;100327.63;5053496;28;1172182;-27
2022/07/01 03:07:39;;;;;;;17.40;15.70;;;;;;;21.11;61.71;100339.50;5066533;28;20503;-26
2022/07/01 03:10:05;;;;;;;16.02;14.43;;;;;;;21.09;61.48;100341.41;5069890;28;20024;-26
2022/07/01 03:12:39;;;;;;;16.48;14.77;;;;;;;21.10;61.93;100350.28;5065324;28;20040;-26
2022/07/01 03:15:09;;;;;;;16.00;14.30;;;;;;;21.07;61.50;100364.75;5061690;28;20115;-26
2022/07/01 03:17:35;;;;;;;;;;;;;;;21.05;61.84;100361.31;5066645;28;20024;-26
2022/07/01 03:20:01;;;;;;;14.93;13.52;;;;;;;21.09;61.86;100376.25;5065648;28;19927;-26
2022/07/01 03:22:29;;;;;;;16.02;14.45;;;;;;;21.07;61.88;100380.84;5068894;28;20025;-26
2022/07/01 03:24:55;;;;;;;15.48;13.98;;;;;;;21.08;62.54;100403.16;5065462;28;20528;-26
2022/07/01 03:27:21;;;;;;;16.08;14.48;;;;;;;21.15;64.06;100405.38;5064351;28;20472;-27
2022/07/01 03:29:47;;;;;;;16.95;15.25;;;;;;;21.17;63.15;100393.72;5046911;28;20558;-26
2022/07/01 03:32:12;;;;;;;15.25;13.65;;;;;;;21.18;64.99;100404.38;5067817;28;20126;-26
2022/07/01 03:34:39;;;;;;;18.15;14.65;;;;;;;21.18;64.20;100435.66;5067543;28;20387;-26
2022/07/01 03:37:06;;;;;;;16.60;14.82;;;;;;;21.25;66.91;100458.50;5063192;28;20025;-26
2022/07/01 03:39:32;;;;;;;17.85;14.43;;;;;;;21.23;68.43;100471.13;5065519;28;20028;-26
2022/07/01 03:41:57;;;;;;;16.30;14.40;;;;;;;21.17;67.87;100471.50;5066318;28;20029;-26
2022/07/01 03:44:22;;;;;;;16.52;14.75;;;;;;;21.11;69.34;100476.22;5064073;28;21082;-24
2022/07/01 03:46:48;;;;;;;16.05;14.35;;;;;;;21.07;67.88;100488.06;5064221;28;20066;-24
2022/07/01 03:49:13;;;;;;;16.27;14.68;;;;;;;21.07;68.47;100496.13;5066570;28;20058;-24
2022/07/01 03:51:39;;;;;;;17.42;14.25;;;;;;;21.04;66.55;100504.34;5065550;28;20123;-25
2022/07/01 03:56:48;;;;;;;15.85;13.52;;;;;;;21.00;67.24;100492.06;5071134;28;20035;-25
2022/07/01 03:59:14;;;;;;;14.80;13.43;;;;;;;20.95;66.95;100483.41;5052829;28;20024;-24
2022/07/01 04:01:39;;;;;;;13.60;12.25;;;;;;;20.94;66.95;100470.97;5068718;28;20095;-24
2022/07/01 04:04:04;;;;;;;13.65;12.35;;;;;;;20.93;67.29;100463.84;5067429;28;20472;-24
2022/07/01 04:06:30;;;;;;;12.13;10.82;;;;;;;20.91;66.96;100455.06;5070836;28;20586;-24
2022/07/01 04:08:55;;;;;;;10.30;9.30;;;;;;;20.88;66.54;100438.19;5069266;28;20488;-24
2022/07/01 04:11:21;;;;;;;10.10;8.95;;;;;;;20.88;66.44;100432.81;5070197;28;20017;-24
2022/07/01 04:13:50;;;;;;;11.80;9.55;;;;;;;20.86;67.06;100437.38;5069126;28;20033;-24
2022/07/01 04:16:16;;;;;;;8.85;8.00;;;;;;;20.86;66.33;100432.03;5069017;28;20029;-24
2022/07/01 04:18:42;;;;;;;9.80;8.02;;;;;;;20.88;66.17;100429.25;5066985;28;20129;-24
2022/07/01 04:23:51;;;;;;;10.40;7.80;;;;;;;20.83;66.92;100426.84;5068153;28;20044;-24
2022/07/01 04:26:17;;;;;;;8.95;8.00;;;;;;;20.82;66.84;100430.47;5069305;28;20025;-24
2022/07/01 04:28:42;;;;;;;8.70;7.90;;;;;;;20.80;67.25;100427.00;5071177;28;20025;-24
2022/07/01 04:31:08;;;;;;;9.38;8.48;;;;;;;20.80;67.32;100432.38;5052702;28;20358;-25
2022/07/01 04:33:33;;;;;;;8.65;7.82;;;;;;;20.79;67.25;100430.63;5066892;28;20071;-24
2022/07/01 04:35:59;;;;;;;8.55;7.70;;;;;;;20.77;67.18;100440.56;5050401;28;20439;-24
2022/07/01 04:38:24;;;;;;;8.05;7.43;;;;;;;20.79;66.86;100452.09;5069299;28;20033;-24
2022/07/01 04:43:33;;;;;;;8.20;7.38;;;;;;;20.79;66.95;100480.69;5068781;28;20042;-24
2022/07/01 04:45:58;;;;;;;8.07;7.13;;;;;;;20.76;66.66;100484.41;5066363;28;20016;-24
2022/07/01 04:48:24;;;;;;;7.80;7.20;;;;;;;20.77;66.46;100502.19;5064647;28;20099;-27
2022/07/01 04:50:49;;;;;;;8.13;7.07;;;;;;;20.76;66.51;100511.19;5063491;28;20123;-24
2022/07/01 04:53:14;;;;;;;8.23;7.40;;;;;;;20.76;66.79;100516.56;5066362;28;20052;-24
2022/07/01 04:55:40;;;;;;;8.32;7.43;;;;;;;20.76;67.18;100519.25;5066165;28;20033;-24
2022/07/01 04:58:05;;;;;;;7.70;7.00;;;;;;;20.75;66.70;100528.25;5067195;28;20292;-24
2022/07/01 05:00:31;;;;;;;9.32;7.95;;;;;;;20.76;67.24;100543.34;5067949;28;20032;-25
2022/07/01 05:02:56;;;;;;;9.07;8.23;;;;;;;20.76;67.70;100554.94;5065351;28;20412;-25
2022/07/01 05:05:21;;;;;;;8.57;7.70;;;;;;;20.74;67.49;100566.72;5064018;28;20066;-25
2022/07/01 05:07:47;;;;;;;8.25;7.57;;;;;;;20.75;67.76;100565.75;5065458;28;20090;-25
2022/07/01 05:10:12;;;;;;;10.00;9.05;;;;;;;20.74;68.10;100566.72;5069706;28;20047;-25
2022/07/01 05:12:38;;;;;;;8.10;7.50;;;;;;;20.74;67.67;100564.03;5066626;28;20055;-25
2022/07/01 05:15:03;;;;;;;10.10;9.10;;;;;;;20.73;67.65;100563.16;5065449;28;20128;-25
2022/07/01 05:21:55;;;;;;;9.68;8.48;;;;;;;20.74;67.46;100569.38;5067486;28;20072;-25
2022/07/01 05:22:58;;;;;;;9.98;9.07;;;;;;;20.72;67.60;100572.16;5064988;28;20039;-27
2022/07/01 05:25:23;;;;;;;10.38;9.48;;;;;;;20.72;67.59;100573.94;5067933;28;20016;-27
2022/07/01 05:27:49;;;;;;;9.48;8.68;;;;;;;20.70;67.30;100575.84;5071246;28;20498;-27
2022/07/01 05:30:14;;;;;;;10.05;9.05;;;;;;;20.69;67.23;100580.34;5065566;28;20024;-27
2022/07/01 05:32:39;;;;;;;10.18;9.27;;;;;;;20.68;66.87;100591.13;5069643;28;20107;-27
2022/07/01 05:35:05;;;;;;;10.15;9.25;;;;;;;20.69;66.83;100590.19;5067009;28;20032;-28
2022/07/01 05:37:31;;;;;;;10.07;9.02;;;;;;;20.66;67.01;100588.53;5070296;28;20393;-27
2022/07/01 05:39:56;;;;;;;9.50;8.60;;;;;;;20.64;66.76;100593.97;5066404;28;20102;-27
2022/07/01 05:42:21;;;;;;;8.50;7.75;;;;;;;20.65;67.08;100594.84;5067545;28;20514;-27
2022/07/01 05:44:47;;;;;;;14.13;9.82;;;;;;;20.43;68.63;100593.28;5066943;28;20027;-25
2022/07/01 05:47:12;;;;;;;11.77;10.48;;;;;;;20.51;68.70;100603.63;5051659;28;20094;-26
2022/07/01 05:49:38;;;;;;;11.63;9.77;;;;;;;20.56;68.55;100606.91;5063799;28;20036;-27
2022/07/01 05:52:03;;;;;;;10.25;9.20;;;;;;;20.56;68.04;100601.56;5059052;28;20306;-27
2022/07/01 05:54:29;;;;;;;9.85;8.85;;;;;;;20.55;67.68;100618.59;5064434;28;20059;-26
2022/07/01 05:56:54;;;;;;;10.43;8.80;;;;;;;20.55;67.58;100620.38;5064274;28;20103;-27
2022/07/01 05:59:19;;;;;;;10.20;8.90;;;;;;;20.54;67.96;100621.34;5064952;28;20113;-24
2022/07/01 06:01:46;;;;;;;8.85;8.05;;;;;;;20.54;67.43;100616.84;5070115;28;20021;-26
2022/07/01 06:04:11;;;;;;;8.80;8.00;;;;;;;20.50;67.38;100618.81;5069839;28;20025;-27
2022/07/01 06:06:37;;;;;;;8.32;7.63;;;;;;;20.53;67.39;100619.63;5067779;28;20497;-27
2022/07/01 06:09:02;;;;;;;8.02;7.32;;;;;;;20.49;67.15;100629.59;5067223;28;20036;-27
2022/07/01 06:11:28;;;;;;;7.90;6.35;;;;;;;20.49;67.11;100648.34;5065298;28;20119;-27
2022/07/01 06:13:53;;;;;;;7.68;7.00;;;;;;;20.46;67.02;100653.88;5067375;28;20024;-27
2022/07/01 06:16:18;;;;;;;6.00;5.45;;;;;;;20.44;66.97;100658.47;5062909;28;20073;-27
2022/07/01 06:18:44;;;;;;;8.80;6.30;;;;;;;20.42;67.29;100649.63;5066069;28;20024;-27
2022/07/01 06:21:09;;;;;;;5.35;4.90;;;;;;;20.40;67.00;100648.84;5064602;28;20028;-27
2022/07/01 06:23:34;;;;;;;5.18;4.70;;;;;;;20.36;66.80;100662.38;5063889;28;20040;-27
2022/07/01 06:26:00;;;;;;;5.30;4.88;;;;;;;20.35;66.85;100660.66;5064658;28;20028;-27
2022/07/01 06:28:29;;;;;;;5.28;4.88;;;;;;;20.32;66.89;100671.53;5069099;28;20025;-27
2022/07/01 06:30:56;;;;;;;3.88;3.47;;;;;;;20.31;66.70;100671.59;5068780;28;20487;-27
2022/07/01 06:33:21;;;;;;;4.18;3.83;;;;;;;20.28;66.45;100677.97;5064636;28;20039;-27
2022/07/01 06:35:46;;;;;;;3.95;3.65;;;;;;;20.25;66.68;100670.94;5066692;28;20024;-27
2022/07/01 06:38:11;;;;;;;3.47;3.17;;;;;;;20.24;66.55;100665.69;5067821;28;20025;-27
2022/07/01 06:40:37;;;;;;;4.20;3.55;;;;;;;20.24;66.67;100674.56;5067653;28;20033;-27
2022/07/01 06:43:03;;;;;;;3.20;2.97;;;;;;;20.22;66.29;100673.81;5067770;28;20028;-27
2022/07/01 06:45:28;;;;;;;2.88;2.67;;;;;;;20.20;66.40;100661.41;5066712;28;20032;-27
2022/07/01 06:47:54;;;;;;;2.72;2.53;;;;;;;20.20;66.28;100672.13;5065414;28;20025;-27
2022/07/01 06:50:19;;;;;;;2.40;2.30;;;;;;;20.19;66.37;100678.41;5060156;28;20036;-27
2022/07/01 06:52:45;;;;;;;3.75;2.50;;;;;;;20.17;66.09;100693.72;5065816;28;20020;-27
2022/07/01 06:55:10;;;;;;;1.92;1.83;;;;;;;20.13;66.23;100691.19;5067340;28;20024;-27
2022/07/01 06:57:36;;;;;;;1.88;1.77;;;;;;;20.10;66.09;100699.34;5067652;28;20530;-25
2022/07/01 07:00:01;;;;;;;1.90;1.80;;;;;;;20.07;66.36;100704.84;5065665;28;20048;-25
2022/07/01 07:02:26;;;;;;;1.73;1.63;;;;;;;20.05;66.29;100704.06;5049866;28;20535;-25
2022/07/01 07:04:57;;;;;;;1.42;1.33;;;;;;;20.02;66.40;100708.69;5066132;28;20056;-25
2022/07/01 07:07:22;;;;;;;1.33;1.30;;;;;;;19.98;66.09;100708.81;5066934;28;20063;-25
2022/07/01 07:09:47;;;;;;;1.70;1.60;;;;;;;19.97;66.35;100716.91;5068470;28;20028;-25
2022/07/01 07:12:13;;;;;;;1.35;1.25;;;;;;;19.95;66.17;100732.19;5067758;28;20062;-25
2022/07/01 07:14:38;;;;;;;1.60;1.50;;;;;;;19.93;66.22;100742.97;5066708;28;20025;-25
2022/07/01 07:17:03;;;;;;;1.50;1.40;;;;;;;19.92;66.01;100735.88;5067967;28;20097;-25
2022/07/01 07:19:29;;;;;;;1.25;1.20;;;;;;;19.91;65.93;100747.50;5067267;28;20119;-25
2022/07/01 07:21:56;;;;;;;1.02;0.93;;;;;;;19.88;66.10;100745.84;5064375;28;20042;-27
2022/07/01 07:24:21;;;;;;;1.48;1.38;;;;;;;19.88;66.12;100758.38;5068244;28;20520;-27
2022/07/01 07:26:47;;;;;;;1.08;1.08;;;;;;;19.86;66.23;100753.09;5045667;28;20795;-25
2022/07/01 07:29:13;;;;;;;1.30;1.20;;;;;;;19.85;66.00;100754.03;5071964;28;20038;-25
2022/07/01 07:31:38;;;;;;;1.15;1.05;;;;;;;19.85;66.02;100754.03;5071750;28;20016;-25
2022/07/01 07:34:03;;;;;;;0.95;0.93;;;;;;;19.85;66.14;100748.66;5071498;28;20094;-25
2022/07/01 07:36:29;;;;;;;1.65;1.15;;;;;;;19.84;66.38;100754.97;5049648;28;20060;-25
2022/07/01 07:38:54;;;;;;;0.93;0.93;;;;;;;19.84;66.22;100771.03;5064006;28;20040;-25
2022/07/01 07:41:19;;;;;;;1.30;1.20;;;;;;;19.83;65.98;100784.47;5071429;28;20495;-26
2022/07/01 07:43:45;;;;;;;1.08;1.05;;;;;;;19.81;66.09;100779.19;5068158;28;20472;-25
2022/07/01 07:46:11;;;;;;;1.48;1.10;;;;;;;19.80;66.04;100782.81;5070397;28;20032;-25
2022/07/01 07:48:36;;;;;;;2.28;1.13;;;;;;;19.80;66.29;100796.19;5069679;28;20031;-27
2022/07/01 07:51:02;;;;;;;1.40;1.30;;;;;;;19.80;65.86;100811.38;5070031;28;20517;-27
2022/07/01 07:53:27;;;;;;;1.58;0.93;;;;;;;19.77;65.98;100807.03;5070948;28;20116;-26
2022/07/01 07:55:52;;;;;;;1.02;1.02;;;;;;;19.77;66.17;100806.19;5071396;28;20030;-25
2022/07/01 07:58:18;;;;;;;1.08;1.00;;;;;;;19.77;66.23;100800.84;5070874;28;20111;-27
2022/07/01 08:00:43;;;;;;;1.92;1.40;;;;;;;19.74;66.12;100801.84;5069442;28;20055;-27
2022/07/01 08:03:09;;;;;;;1.38;1.27;;;;;;;19.74;65.88;100817.91;5063860;28;20024;-25
2022/07/01 08:05:34;;;;;;;2.17;1.17;;;;;;;19.73;65.99;100832.19;5070239;28;20073;-27
2022/07/01 08:07:59;;;;;;;1.35;1.27;;;;;;;19.71;65.79;100832.25;5070072;28;20033;-26
2022/07/01 08:10:25;;;;;;;1.45;1.35;;;;;;;19.70;65.83;100822.50;5068284;28;20109;-25
2022/07/01 08:12:50;;;;;;;2.75;2.55;;;;;;;19.66;66.06;100817.34;5069791;28;20394;-25
2022/07/01 08:15:16;;;;;;;3.15;2.95;;;;;;;19.66;66.06;100803.97;5069632;28;20027;-27
2022/07/01 08:17:41;;;;;;;3.80;3.40;;;;;;;19.65;65.96;100815.63;5070872;28;20506;-25
2022/07/01 08:20:08;;;;;;;3.63;3.33;;;;;;;19.61;65.99;100815.75;5068086;28;20059;-25
2022/07/01 08:22:33;;;;;;;3.75;3.42;;;;;;;19.59;66.03;100825.69;5070896;28;20027;-25
2022/07/01 08:24:58;;;;;;;4.82;3.95;;;;;;;19.58;66.15;100829.25;5069756;28;20471;-25
2022/07/01 08:27:24;;;;;;;3.72;3.40;;;;;;;19.55;65.93;100833.91;5070462;28;20033;-25
2022/07/01 08:29:49;;;;;;;4.10;3.80;;;;;;;19.53;66.06;100847.34;5070486;28;20036;-25
2022/07/01 08:32:14;;;;;;;4.47;4.07;;;;;;;19.52;66.08;100858.97;5068973;28;20055;-27
2022/07/01 08:34:40;;;;;;;4.75;4.35;;;;;;;19.49;65.97;100845.72;5065924;28;20202;-27
2022/07/01 08:37:05;;;;;;;6.32;4.75;;;;;;;19.46;65.86;100843.19;5067945;28;20058;-26
2022/07/01 08:39:31;;;;;;;5.07;4.13;;;;;;;19.43;65.91;100819.25;5062492;28;20103;-25
2022/07/01 08:41:56;;;;;;;4.95;4.50;;;;;;;19.41;66.13;100819.31;5065623;28;20024;-25
2022/07/01 08:44:22;;;;;;;4.35;4.00;;;;;;;19.41;65.96;100815.78;5066544;28;20024;-26
2022/07/01 08:46:47;;;;;;;5.05;4.43;;;;;;;19.40;66.28;100822.09;5070281;28;20055;-27
2022/07/01 08:49:13;;;;;;;5.45;4.93;;;;;;;19.37;66.09;100831.09;5068381;28;20077;-27
2022/07/01 08:51:38;;;;;;;4.90;4.47;;;;;;;19.36;66.05;100840.06;5068771;28;20033;-27
2022/07/01 08:54:04;;;;;;;5.05;4.60;;;;;;;19.34;66.12;100858.84;5066416;28;20025;-26
2022/07/01 08:56:41;;;;;;;4.70;4.30;;;;;;;19.31;65.88;100837.56;5061482;28;20032;-27
2022/07/01 08:59:28;;;;;;;5.18;4.70;;;;;;;19.31;66.16;100818.00;5069591;28;20035;-27
2022/07/01 09:02:01;;;;;;;4.40;4.00;;;;;;;19.29;65.96;100826.09;5059056;28;20508;-26
2022/07/01 09:04:27;;;;;;;4.53;4.13;;;;;;;19.29;65.99;100831.44;5067780;28;20029;-25
2022/07/01 09:07:00;;;;;;;5.22;4.75;;;;;;;19.29;65.92;100815.41;5069487;28;20089;-25
2022/07/01 09:09:26;;;;;;;4.60;4.20;;;;;;;19.28;66.04;100802.09;5067610;28;20036;-25
2022/07/01 09:11:53;;;;;;;5.28;4.43;;;;;;;19.29;66.15;100806.50;5050261;28;20039;-25
2022/07/01 09:14:20;;;;;;;5.18;4.70;;;;;;;19.28;66.10;100829.72;5065973;28;20036;-25
2022/07/01 09:16:55;;;;;;;4.47;4.10;;;;;;;19.29;66.10;100843.94;5063279;28;20059;-25
2022/07/01 09:19:21;;;;;;;4.05;3.72;;;;;;;19.28;66.12;100840.41;5064030;28;20028;-25
2022/07/01 09:21:49;;;;;;;4.47;4.07;;;;;;;19.27;66.19;100829.78;5065771;28;20139;-25
2022/07/01 09:24:29;;;;;;;4.68;4.28;;;;;;;19.27;66.38;100827.94;5065264;28;20074;-27
2022/07/01 09:27:00;;;;;;;6.93;4.50;;;;;;;19.27;66.29;100829.78;5066020;28;20024;-25
2022/07/01 09:29:34;;;;;;;4.03;3.65;;;;;;;19.27;66.28;100849.34;5073036;28;20035;-27
2022/07/01 09:32:02;;;;;;;4.63;4.22;;;;;;;19.27;66.16;100851.16;5081689;28;20067;-25
2022/07/01 09:34:32;;;;;;;4.47;3.97;;;;;;;19.25;66.51;100869.94;5068148;28;20476;-26
2022/07/01 09:36:58;;;;;;;5.18;4.72;;;;;;;19.24;66.77;100878.88;5056785;28;20036;-25
2022/07/01 09:39:23;;;;;;;4.65;4.25;;;;;;;19.22;66.88;100875.41;5050911;28;20455;-27
2022/07/01 09:41:49;;;;;;;4.90;4.50;;;;;;;19.20;66.89;100866.56;5069233;28;20166;-25
2022/07/01 09:44:14;;;;;;;5.05;4.22;;;;;;;19.21;66.77;100865.66;5064128;28;20044;-27
2022/07/01 09:46:57;;;;;;;5.15;4.63;;;;;;;19.19;66.95;100873.75;5051285;28;20032;-25
2022/07/01 09:49:23;;;;;;;6.05;4.45;;;;;;;19.20;66.86;100877.25;5067450;28;20425;-27
2022/07/01 09:51:50;;;;;;;5.55;4.95;;;;;;;19.19;67.01;100873.75;5063666;28;20024;-26
2022/07/01 09:54:15;;;;;;;4.85;4.43;;;;;;;19.18;66.78;100876.47;5062652;28;20032;-27
2022/07/01 09:56:41;;;;;;;5.60;4.60;;;;;;;19.19;66.95;100891.56;5068478;28;20028;-27
2022/07/01 09:59:06;;;;;;;4.80;4.32;;;;;;;19.16;66.85;100905.94;5069724;28;20033;-26
2022/07/01 10:01:32;;;;;;;5.05;4.60;;;;;;;19.15;66.94;100911.34;5067858;28;20441;-27
2022/07/01 10:03:58;;;;;;;7.35;4.10;;;;;;;19.16;66.82;100915.75;5067361;28;20745;-25
2022/07/01 10:06:46;;;;;;;5.38;4.25;;;;;;;19.15;67.01;100912.22;5051711;28;20024;-27
2022/07/01 10:09:33;;;;;;;5.05;3.70;;;;;;;19.15;66.86;100919.38;5063828;28;21112;-26
2022/07/01 10:12:25;;;;;;;4.35;3.95;;;;;;;19.13;67.06;100919.44;5067822;28;20056;-27
2022/07/01 10:14:51;;;;;;;4.03;3.40;;;;;;;19.12;66.92;100919.50;5066857;28;20029;-27
2022/07/01 10:17:28;;;;;;;3.25;2.90;;;;;;;19.12;67.04;100919.50;5069447;28;20476;-25
2022/07/01 10:19:58;;;;;;;5.00;3.20;;;;;;;19.10;67.17;100917.75;5052999;28;20025;-25
2022/07/01 10:22:26;;;;;;;2.63;2.42;;;;;;;19.08;67.01;100919.63;5067377;28;20056;-25
2022/07/01 10:24:51;;;;;;;2.70;2.50;;;;;;;19.07;67.23;100919.69;5066191;28;20504;-27
2022/07/01 10:27:24;;;;;;;2.92;2.70;;;;;;;19.07;67.22;100919.69;5065389;28;20119;-25
2022/07/01 10:30:13;;;;;;;3.22;2.35;;;;;;;19.05;67.39;100917.06;5064285;28;20028;-25
2022/07/01 10:32:46;;;;;;;3.00;2.70;;;;;;;19.04;67.49;100912.63;5063948;28;20111;-25
2022/07/01 10:35:11;;;;;;;2.83;2.50;;;;;;;19.05;67.83;100906.38;5069426;28;20078;-25
2022/07/01 10:37:56;;;;;;;2.47;2.28;;;;;;;19.04;67.53;100899.25;5064794;28;21110;-27
2022/07/01 10:40:40;;;;;;;2.17;2.03;;;;;;;19.03;67.93;100908.22;5049656;28;20377;-25
2022/07/01 10:43:05;;;;;;;2.45;2.25;;;;;;;19.02;67.67;100903.81;5046749;28;20024;-27
2022/07/01 10:45:41;;;;;;;2.72;1.98;;;;;;;19.01;68.09;100904.75;5067566;28;20024;-27
2022/07/01 10:48:20;;;;;;;2.35;2.15;;;;;;;19.00;67.88;100911.00;5060448;28;20029;-27
2022/07/01 10:50:47;;;;;;;1.80;1.70;;;;;;;18.97;67.71;100917.34;5061236;28;20033;-27
2022/07/01 10:53:13;;;;;;;2.00;1.58;;;;;;;18.97;67.67;100929.84;5065625;28;20020;-28
2022/07/01 10:55:42;;;;;;;1.55;1.45;;;;;;;18.95;67.59;100929.03;5048032;28;20021;-26
2022/07/01 10:58:08;;;;;;;1.77;1.33;;;;;;;18.92;67.43;100931.84;5060856;28;20036;-26
2022/07/01 11:00:35;;;;;;;1.30;1.20;;;;;;;18.92;67.16;100938.06;5062508;28;20363;-26
2022/07/01 11:03:27;;;;;;;2.28;1.35;;;;;;;18.91;67.38;100936.31;5064905;28;20052;-27
2022/07/01 11:05:55;;;;;;;1.20;1.10;;;;;;;18.89;67.39;100938.19;5049840;28;20041;-27
2022/07/01 11:08:20;;;;;;;4.13;1.27;;;;;;;18.89;67.43;100934.63;5066376;28;20033;-27
2022/07/01 11:10:50;;;;;;;1.35;1.25;;;;;;;18.87;67.28;100933.84;5066163;28;20419;-26
2022/07/01 11:13:16;;;;;;;1.30;1.20;;;;;;;18.87;67.29;100940.03;5064102;28;20115;-25
2022/07/01 11:15:44;;;;;;;2.10;1.20;;;;;;;18.88;67.19;100946.25;5067737;28;20094;-25
2022/07/01 11:18:09;;;;;;;1.40;1.30;;;;;;;18.86;67.28;100943.63;5066689;28;20028;-25
2022/07/01 11:20:35;;;;;;;1.23;1.13;;;;;;;18.85;67.13;100949.94;5062116;28;20031;-25
2022/07/01 11:23:00;;;;;;;1.25;1.00;;;;;;;18.84;67.21;100946.38;5067432;28;20043;-25
2022/07/01 11:25:27;;;;;;;1.63;1.20;;;;;;;18.83;67.34;100955.31;5065334;28;20024;-25
2022/07/01 11:27:52;;;;;;;1.30;1.20;;;;;;;18.83;67.27;100954.44;5064319;28;20025;-27